sensor_id;sensor_type;location;lat;lon;timestamp;pressure;altitude;pressure_sealevel;temperature;humidity
70027;BME280;57506;50.092;15.804;2023-07-20T00:00:27;98573.06;;;17.39;92.31
70027;BME280;57506;50.092;15.804;2023-07-20T00:03:10;98563.81;;;17.40;92.24
70027;BME280;57506;50.092;15.804;2023-07-20T00:05:35;98576.94;;;17.43;92.90
70027;BME280;57506;50.092;15.804;2023-07-20T00:08:01;98575.25;;;17.37;93.36
70027;BME280;57506;50.092;15.804;2023-07-20T00:10:26;98562.72;;;17.36;93.34
70027;BME280;57506;50.092;15.804;2023-07-20T00:12:52;98561.06;;;17.35;93.40
70027;BME280;57506;50.092;15.804;2023-07-20T00:15:17;98560.91;;;17.25;94.19
70027;BME280;57506;50.092;15.804;2023-07-20T00:17:43;98563.59;;;17.20;94.95
70027;BME280;57506;50.092;15.804;2023-07-20T00:20:10;98553.69;;;17.13;95.22
70027;BME280;57506;50.092;15.804;2023-07-20T00:22:36;98551.00;;;16.97;96.21
70027;BME280;57506;50.092;15.804;2023-07-20T00:25:02;98552.91;;;16.96;97.10
70027;BME280;57506;50.092;15.804;2023-07-20T00:27:28;98555.53;;;16.91;97.05
70027;BME280;57506;50.092;15.804;2023-07-20T00:29:53;98543.84;;;16.74;98.24
70027;BME280;57506;50.092;15.804;2023-07-20T00:32:19;98555.75;;;16.68;99.06
70027;BME280;57506;50.092;15.804;2023-07-20T00:34:44;98556.88;;;16.55;100.00
70027;BME280;57506;50.092;15.804;2023-07-20T00:37:10;98558.69;;;16.50;100.00
70027;BME280;57506;50.092;15.804;2023-07-20T00:39:35;98559.84;;;16.37;100.00
70027;BME280;57506;50.092;15.804;2023-07-20T00:42:01;98563.13;;;16.22;100.00
70027;BME280;57506;50.092;15.804;2023-07-20T00:44:26;98563.13;;;16.05;100.00
70027;BME280;57506;50.092;15.804;2023-07-20T00:46:52;98575.91;;;15.93;100.00
70027;BME280;57506;50.092;15.804;2023-07-20T00:49:17;98565.94;;;15.82;100.00
70027;BME280;57506;50.092;15.804;2023-07-20T00:51:47;98568.50;;;15.89;100.00
70027;BME280;57506;50.092;15.804;2023-07-20T00:54:14;98565.28;;;15.92;100.00
70027;BME280;57506;50.092;15.804;2023-07-20T00:56:40;98572.13;;;15.94;100.00
70027;BME280;57506;50.092;15.804;2023-07-20T00:59:06;98573.78;;;15.95;100.00
70027;BME280;57506;50.092;15.804;2023-07-20T01:01:32;98581.78;;;16.02;100.00
70027;BME280;57506;50.092;15.804;2023-07-20T01:03:58;98584.94;;;16.10;100.00
70027;BME280;57506;50.092;15.804;2023-07-20T01:11:43;98578.97;;;16.59;100.00
70027;BME280;57506;50.092;15.804;2023-07-20T01:14:10;98576.94;;;16.66;100.00
70027;BME280;57506;50.092;15.804;2023-07-20T01:16:37;98564.97;;;16.84;100.00
70027;BME280;57506;50.092;15.804;2023-07-20T01:19:02;98555.03;;;16.94;100.00
70027;BME280;57506;50.092;15.804;2023-07-20T01:21:34;98570.88;;;16.97;100.00
70027;BME280;57506;50.092;15.804;2023-07-20T01:29:54;98565.13;;;16.77;100.00
70027;BME280;57506;50.092;15.804;2023-07-20T01:32:25;98573.47;;;16.70;100.00
70027;BME280;57506;50.092;15.804;2023-07-20T01:34:52;98583.09;;;16.61;100.00
70027;BME280;57506;50.092;15.804;2023-07-20T01:37:20;98588.44;;;16.56;100.00
70027;BME280;57506;50.092;15.804;2023-07-20T01:39:47;98587.44;;;16.62;100.00
70027;BME280;57506;50.092;15.804;2023-07-20T01:42:12;98604.03;;;16.61;100.00
70027;BME280;57506;50.092;15.804;2023-07-20T01:44:38;98606.97;;;16.59;100.00
70027;BME280;57506;50.092;15.804;2023-07-20T01:47:04;98608.38;;;16.62;100.00
70027;BME280;57506;50.092;15.804;2023-07-20T01:49:29;98602.00;;;16.68;100.00
70027;BME280;57506;50.092;15.804;2023-07-20T01:51:55;98596.56;;;16.68;100.00
70027;BME280;57506;50.092;15.804;2023-07-20T01:54:20;98594.97;;;16.55;100.00
70027;BME280;57506;50.092;15.804;2023-07-20T01:56:46;98600.22;;;16.45;100.00
70027;BME280;57506;50.092;15.804;2023-07-20T01:59:12;98595.34;;;16.30;100.00
70027;BME280;57506;50.092;15.804;2023-07-20T02:01:37;98605.56;;;16.23;100.00
70027;BME280;57506;50.092;15.804;2023-07-20T02:04:03;98606.09;;;16.08;100.00
70027;BME280;57506;50.092;15.804;2023-07-20T02:06:28;98609.22;;;16.00;100.00
70027;BME280;57506;50.092;15.804;2023-07-20T02:08:54;98614.78;;;15.94;100.00
70027;BME280;57506;50.092;15.804;2023-07-20T02:11:19;98622.28;;;15.87;100.00
70027;BME280;57506;50.092;15.804;2023-07-20T02:13:45;98622.50;;;15.85;100.00
70027;BME280;57506;50.092;15.804;2023-07-20T02:16:10;98626.53;;;15.83;100.00
70027;BME280;57506;50.092;15.804;2023-07-20T02:18:36;98617.78;;;15.81;100.00
70027;BME280;57506;50.092;15.804;2023-07-20T02:21:02;98616.84;;;15.75;100.00
70027;BME280;57506;50.092;15.804;2023-07-20T02:23:28;98618.66;;;15.69;100.00
70027;BME280;57506;50.092;15.804;2023-07-20T02:25:53;98624.44;;;15.61;100.00
70027;BME280;57506;50.092;15.804;2023-07-20T02:28:19;98634.50;;;15.49;100.00
70027;BME280;57506;50.092;15.804;2023-07-20T02:30:44;98638.75;;;15.45;100.00
70027;BME280;57506;50.092;15.804;2023-07-20T02:33:10;98643.34;;;15.45;100.00
70027;BME280;57506;50.092;15.804;2023-07-20T02:35:35;98637.00;;;15.39;100.00
70027;BME280;57506;50.092;15.804;2023-07-20T02:38:01;98636.25;;;15.44;100.00
70027;BME280;57506;50.092;15.804;2023-07-20T02:40:26;98640.88;;;15.43;100.00
70027;BME280;57506;50.092;15.804;2023-07-20T02:42:53;98646.81;;;15.40;100.00
70027;BME280;57506;50.092;15.804;2023-07-20T02:45:18;98658.25;;;15.42;100.00
70027;BME280;57506;50.092;15.804;2023-07-20T02:47:44;98646.81;;;15.40;100.00
70027;BME280;57506;50.092;15.804;2023-07-20T02:50:09;98656.94;;;15.45;100.00
70027;BME280;57506;50.092;15.804;2023-07-20T02:52:35;98639.72;;;15.39;100.00
70027;BME280;57506;50.092;15.804;2023-07-20T02:55:00;98633.00;;;15.42;100.00
70027;BME280;57506;50.092;15.804;2023-07-20T02:57:26;98638.16;;;15.43;100.00
70027;BME280;57506;50.092;15.804;2023-07-20T02:59:52;98638.53;;;15.35;100.00
70027;BME280;57506;50.092;15.804;2023-07-20T03:02:17;98641.34;;;15.28;100.00
70027;BME280;57506;50.092;15.804;2023-07-20T03:04:43;98647.16;;;15.20;100.00
70027;BME280;57506;50.092;15.804;2023-07-20T03:07:09;98640.19;;;15.13;100.00
70027;BME280;57506;50.092;15.804;2023-07-20T03:09:34;98639.59;;;15.11;100.00
70027;BME280;57506;50.092;15.804;2023-07-20T03:11:59;98633.59;;;15.09;100.00
70027;BME280;57506;50.092;15.804;2023-07-20T03:14:26;98638.91;;;15.03;100.00
70027;BME280;57506;50.092;15.804;2023-07-20T03:16:51;98642.69;;;15.02;100.00
70027;BME280;57506;50.092;15.804;2023-07-20T03:19:17;98638.31;;;15.01;100.00
70027;BME280;57506;50.092;15.804;2023-07-20T03:21:43;98629.56;;;15.11;100.00
70027;BME280;57506;50.092;15.804;2023-07-20T03:24:08;98644.81;;;15.24;100.00
70027;BME280;57506;50.092;15.804;2023-07-20T03:26:35;98625.31;;;15.27;100.00
70027;BME280;57506;50.092;15.804;2023-07-20T03:29:01;98629.44;;;15.29;100.00
70027;BME280;57506;50.092;15.804;2023-07-20T03:31:26;98621.19;;;15.24;100.00
70027;BME280;57506;50.092;15.804;2023-07-20T03:33:52;98625.09;;;15.17;100.00
70027;BME280;57506;50.092;15.804;2023-07-20T03:36:18;98632.88;;;15.36;100.00
70027;BME280;57506;50.092;15.804;2023-07-20T03:38:43;98633.72;;;15.25;100.00
70027;BME280;57506;50.092;15.804;2023-07-20T03:41:09;98630.53;;;15.17;100.00
70027;BME280;57506;50.092;15.804;2023-07-20T03:43:37;98641.97;;;15.19;100.00
70027;BME280;57506;50.092;15.804;2023-07-20T03:46:02;98649.19;;;15.25;100.00
70027;BME280;57506;50.092;15.804;2023-07-20T03:48:32;98636.91;;;15.22;100.00
70027;BME280;57506;50.092;15.804;2023-07-20T03:50:58;98653.78;;;15.24;100.00
70027;BME280;57506;50.092;15.804;2023-07-20T03:53:23;98642.56;;;15.21;100.00
70027;BME280;57506;50.092;15.804;2023-07-20T03:55:50;98638.19;;;15.20;100.00
70027;BME280;57506;50.092;15.804;2023-07-20T03:58:17;98649.28;;;15.30;100.00
70027;BME280;57506;50.092;15.804;2023-07-20T04:00:47;98657.75;;;15.45;100.00
70027;BME280;57506;50.092;15.804;2023-07-20T04:03:13;98641.94;;;15.54;100.00
70027;BME280;57506;50.092;15.804;2023-07-20T04:05:39;98656.22;;;15.61;100.00
70027;BME280;57506;50.092;15.804;2023-07-20T04:08:05;98657.41;;;15.65;100.00
70027;BME280;57506;50.092;15.804;2023-07-20T04:10:30;98653.97;;;15.69;100.00
70027;BME280;57506;50.092;15.804;2023-07-20T04:12:56;98656.81;;;15.74;100.00
70027;BME280;57506;50.092;15.804;2023-07-20T04:15:21;98662.91;;;15.82;100.00
70027;BME280;57506;50.092;15.804;2023-07-20T04:17:47;98662.19;;;15.86;100.00
70027;BME280;57506;50.092;15.804;2023-07-20T04:20:13;98659.91;;;15.95;100.00
70027;BME280;57506;50.092;15.804;2023-07-20T04:22:38;98663.34;;;16.02;100.00
70027;BME280;57506;50.092;15.804;2023-07-20T04:25:04;98672.50;;;16.13;100.00
70027;BME280;57506;50.092;15.804;2023-07-20T04:27:30;98665.41;;;16.12;100.00
70027;BME280;57506;50.092;15.804;2023-07-20T04:29:57;98672.13;;;16.21;100.00
70027;BME280;57506;50.092;15.804;2023-07-20T04:32:23;98668.19;;;16.28;100.00
70027;BME280;57506;50.092;15.804;2023-07-20T04:34:48;98677.03;;;16.35;100.00
70027;BME280;57506;50.092;15.804;2023-07-20T04:37:14;98678.03;;;16.46;100.00
70027;BME280;57506;50.092;15.804;2023-07-20T04:39:39;98679.03;;;16.57;100.00
70027;BME280;57506;50.092;15.804;2023-07-20T04:42:05;98669.69;;;16.64;100.00
70027;BME280;57506;50.092;15.804;2023-07-20T04:44:30;98678.59;;;16.76;100.00
70027;BME280;57506;50.092;15.804;2023-07-20T04:46:56;98667.91;;;16.87;100.00
70027;BME280;57506;50.092;15.804;2023-07-20T04:49:21;98671.50;;;16.92;100.00
70027;BME280;57506;50.092;15.804;2023-07-20T04:51:47;98673.00;;;17.00;100.00
70027;BME280;57506;50.092;15.804;2023-07-20T04:54:13;98674.72;;;17.06;100.00
70027;BME280;57506;50.092;15.804;2023-07-20T04:56:39;98676.69;;;17.10;100.00
70027;BME280;57506;50.092;15.804;2023-07-20T04:59:04;98681.75;;;17.19;100.00
70027;BME280;57506;50.092;15.804;2023-07-20T05:01:30;98680.81;;;17.30;100.00
70027;BME280;57506;50.092;15.804;2023-07-20T05:03:55;98678.66;;;17.32;100.00
70027;BME280;57506;50.092;15.804;2023-07-20T05:06:21;98679.88;;;17.41;100.00
70027;BME280;57506;50.092;15.804;2023-07-20T05:08:46;98680.38;;;17.38;100.00
70027;BME280;57506;50.092;15.804;2023-07-20T05:11:12;98682.56;;;17.36;100.00
70027;BME280;57506;50.092;15.804;2023-07-20T05:13:38;98688.13;;;17.46;100.00
70027;BME280;57506;50.092;15.804;2023-07-20T05:16:04;98701.88;;;17.56;100.00
70027;BME280;57506;50.092;15.804;2023-07-20T05:18:29;98700.06;;;17.62;100.00
70027;BME280;57506;50.092;15.804;2023-07-20T05:20:55;98696.25;;;17.79;100.00
70027;BME280;57506;50.092;15.804;2023-07-20T05:23:21;98712.00;;;17.94;100.00
70027;BME280;57506;50.092;15.804;2023-07-20T05:25:47;98709.44;;;18.09;100.00
70027;BME280;57506;50.092;15.804;2023-07-20T05:28:18;98705.31;;;18.07;100.00
70027;BME280;57506;50.092;15.804;2023-07-20T05:30:44;98710.66;;;17.97;99.82
70027;BME280;57506;50.092;15.804;2023-07-20T05:33:10;98709.00;;;17.96;100.00
70027;BME280;57506;50.092;15.804;2023-07-20T05:35:36;98709.69;;;18.08;99.38
70027;BME280;57506;50.092;15.804;2023-07-20T05:38:02;98709.13;;;18.28;98.89
70027;BME280;57506;50.092;15.804;2023-07-20T05:40:29;98705.22;;;18.45;98.23
70027;BME280;57506;50.092;15.804;2023-07-20T05:42:55;98701.09;;;18.65;95.75
70027;BME280;57506;50.092;15.804;2023-07-20T05:45:22;98713.94;;;18.69;95.41
70027;BME280;57506;50.092;15.804;2023-07-20T05:47:47;98714.19;;;18.63;94.93
70027;BME280;57506;50.092;15.804;2023-07-20T05:50:13;98705.41;;;18.61;94.92
70027;BME280;57506;50.092;15.804;2023-07-20T05:52:40;98712.19;;;18.85;95.54
70027;BME280;57506;50.092;15.804;2023-07-20T05:55:06;98705.19;;;18.94;92.64
70027;BME280;57506;50.092;15.804;2023-07-20T05:57:32;98707.31;;;18.87;91.71
70027;BME280;57506;50.092;15.804;2023-07-20T05:59:57;98710.53;;;18.84;90.96
70027;BME280;57506;50.092;15.804;2023-07-20T06:02:23;98715.69;;;19.07;91.66
70027;BME280;57506;50.092;15.804;2023-07-20T06:04:49;98714.34;;;19.10;91.12
70027;BME280;57506;50.092;15.804;2023-07-20T06:07:15;98714.41;;;19.20;90.35
70027;BME280;57506;50.092;15.804;2023-07-20T06:09:40;98707.09;;;19.26;89.25
70027;BME280;57506;50.092;15.804;2023-07-20T06:12:06;98708.66;;;19.53;90.08
70027;BME280;57506;50.092;15.804;2023-07-20T06:14:32;98707.38;;;19.66;87.10
70027;BME280;57506;50.092;15.804;2023-07-20T06:16:58;98722.78;;;19.82;86.44
70027;BME280;57506;50.092;15.804;2023-07-20T06:19:23;98715.47;;;19.51;84.89
70027;BME280;57506;50.092;15.804;2023-07-20T06:21:49;98716.66;;;19.65;86.43
70027;BME280;57506;50.092;15.804;2023-07-20T06:24:17;98712.47;;;20.00;85.32
70027;BME280;57506;50.092;15.804;2023-07-20T06:26:43;98709.81;;;20.15;83.52
70027;BME280;57506;50.092;15.804;2023-07-20T06:29:08;98716.09;;;20.15;82.27
70027;BME280;57506;50.092;15.804;2023-07-20T06:31:35;98709.19;;;19.98;81.84
70027;BME280;57506;50.092;15.804;2023-07-20T06:34:01;98726.72;;;19.97;83.47
70027;BME280;57506;50.092;15.804;2023-07-20T06:36:27;98718.94;;;19.83;82.46
70027;BME280;57506;50.092;15.804;2023-07-20T06:38:52;98718.31;;;19.66;82.64
70027;BME280;57506;50.092;15.804;2023-07-20T06:41:18;98727.16;;;19.78;82.54
70027;BME280;57506;50.092;15.804;2023-07-20T06:43:45;98736.59;;;19.61;83.88
70027;BME280;57506;50.092;15.804;2023-07-20T06:46:10;98727.59;;;19.65;83.08
70027;BME280;57506;50.092;15.804;2023-07-20T06:48:36;98723.59;;;19.83;83.14
70027;BME280;57506;50.092;15.804;2023-07-20T06:51:01;98736.13;;;20.31;82.65
70027;BME280;57506;50.092;15.804;2023-07-20T06:53:31;98733.59;;;20.09;80.01
70027;BME280;57506;50.092;15.804;2023-07-20T06:55:56;98737.09;;;19.95;82.20
70027;BME280;57506;50.092;15.804;2023-07-20T06:58:23;98730.34;;;20.17;81.81
70027;BME280;57506;50.092;15.804;2023-07-20T07:00:49;98739.09;;;20.19;80.66
70027;BME280;57506;50.092;15.804;2023-07-20T07:03:15;98731.97;;;20.18;80.79
70027;BME280;57506;50.092;15.804;2023-07-20T07:05:40;98723.53;;;20.30;81.42
70027;BME280;57506;50.092;15.804;2023-07-20T07:08:06;98735.13;;;20.47;81.48
70027;BME280;57506;50.092;15.804;2023-07-20T07:10:34;98718.06;;;20.25;79.33
70027;BME280;57506;50.092;15.804;2023-07-20T07:13:00;98727.13;;;20.36;83.02
70027;BME280;57506;50.092;15.804;2023-07-20T07:15:26;98731.28;;;20.38;81.37
70027;BME280;57506;50.092;15.804;2023-07-20T07:17:52;98723.91;;;20.49;79.02
70027;BME280;57506;50.092;15.804;2023-07-20T07:20:18;98736.53;;;20.55;81.44
70027;BME280;57506;50.092;15.804;2023-07-20T07:22:44;98736.13;;;20.31;79.88
70027;BME280;57506;50.092;15.804;2023-07-20T07:25:11;98729.50;;;20.17;79.11
70027;BME280;57506;50.092;15.804;2023-07-20T07:27:40;98741.03;;;20.24;76.33
70027;BME280;57506;50.092;15.804;2023-07-20T07:30:06;98729.09;;;20.40;78.47
70027;BME280;57506;50.092;15.804;2023-07-20T07:32:32;98732.03;;;20.29;78.26
70027;BME280;57506;50.092;15.804;2023-07-20T07:34:58;98732.78;;;20.14;80.18
70027;BME280;57506;50.092;15.804;2023-07-20T07:37:24;98730.09;;;20.24;80.59
70027;BME280;57506;50.092;15.804;2023-07-20T07:39:49;98726.41;;;20.55;80.20
70027;BME280;57506;50.092;15.804;2023-07-20T07:42:18;98739.84;;;20.67;79.49
70027;BME280;57506;50.092;15.804;2023-07-20T07:44:46;98730.28;;;20.85;80.90
70027;BME280;57506;50.092;15.804;2023-07-20T07:47:12;98733.88;;;20.90;75.46
70027;BME280;57506;50.092;15.804;2023-07-20T07:49:38;98720.13;;;20.80;76.60
70027;BME280;57506;50.092;15.804;2023-07-20T07:52:04;98729.19;;;20.81;75.12
70027;BME280;57506;50.092;15.804;2023-07-20T07:54:29;98727.53;;;20.70;75.39
70027;BME280;57506;50.092;15.804;2023-07-20T07:56:56;98728.03;;;20.56;74.28
70027;BME280;57506;50.092;15.804;2023-07-20T07:59:22;98728.03;;;20.56;74.38
70027;BME280;57506;50.092;15.804;2023-07-20T08:01:48;98738.47;;;20.65;75.94
70027;BME280;57506;50.092;15.804;2023-07-20T08:04:14;98745.31;;;20.67;73.88
70027;BME280;57506;50.092;15.804;2023-07-20T08:06:40;98739.63;;;21.04;73.39
70027;BME280;57506;50.092;15.804;2023-07-20T08:09:05;98736.66;;;21.26;73.48
70027;BME280;57506;50.092;15.804;2023-07-20T08:11:31;98744.59;;;21.27;73.55
70027;BME280;57506;50.092;15.804;2023-07-20T08:14:01;98734.69;;;21.62;71.00
70027;BME280;57506;50.092;15.804;2023-07-20T08:16:27;98741.53;;;21.64;68.42
70027;BME280;57506;50.092;15.804;2023-07-20T08:18:53;98741.53;;;21.75;68.59
70027;BME280;57506;50.092;15.804;2023-07-20T08:21:18;98741.28;;;21.66;68.22
70027;BME280;57506;50.092;15.804;2023-07-20T08:23:45;98745.13;;;21.75;70.35
70027;BME280;57506;50.092;15.804;2023-07-20T08:26:10;98748.41;;;21.72;69.11
70027;BME280;57506;50.092;15.804;2023-07-20T08:28:36;98742.38;;;21.50;69.21
70027;BME280;57506;50.092;15.804;2023-07-20T08:31:02;98755.00;;;21.30;70.35
70027;BME280;57506;50.092;15.804;2023-07-20T08:33:30;98750.59;;;21.14;68.82
70027;BME280;57506;50.092;15.804;2023-07-20T08:35:58;98740.47;;;21.45;71.44
70027;BME280;57506;50.092;15.804;2023-07-20T08:38:24;98764.78;;;21.92;69.94
70027;BME280;57506;50.092;15.804;2023-07-20T08:40:51;98764.28;;;21.80;67.72
70027;BME280;57506;50.092;15.804;2023-07-20T08:43:19;98751.88;;;22.13;66.25
70027;BME280;57506;50.092;15.804;2023-07-20T08:45:45;98749.81;;;22.54;66.37
70027;BME280;57506;50.092;15.804;2023-07-20T08:48:12;98768.00;;;22.40;65.48
70027;BME280;57506;50.092;15.804;2023-07-20T08:50:38;98759.22;;;22.38;66.91
70027;BME280;57506;50.092;15.804;2023-07-20T08:53:05;98767.84;;;22.71;66.17
70027;BME280;57506;50.092;15.804;2023-07-20T08:55:31;98764.22;;;22.85;66.01
70027;BME280;57506;50.092;15.804;2023-07-20T08:57:58;98759.91;;;23.13;65.82
70027;BME280;57506;50.092;15.804;2023-07-20T09:00:26;98763.41;;;22.75;62.54
70027;BME280;57506;50.092;15.804;2023-07-20T09:02:55;98754.84;;;22.32;63.54
70027;BME280;57506;50.092;15.804;2023-07-20T09:05:23;98755.16;;;22.15;65.67
70027;BME280;57506;50.092;15.804;2023-07-20T09:07:51;98765.94;;;21.81;65.52
70027;BME280;57506;50.092;15.804;2023-07-20T09:10:23;98765.69;;;21.73;65.33
70027;BME280;57506;50.092;15.804;2023-07-20T09:12:50;98761.00;;;21.88;68.03
70027;BME280;57506;50.092;15.804;2023-07-20T09:15:15;98769.66;;;22.26;66.76
70027;BME280;57506;50.092;15.804;2023-07-20T09:17:49;98765.69;;;22.57;62.78
70027;BME280;57506;50.092;15.804;2023-07-20T09:20:17;98772.41;;;22.36;61.89
70027;BME280;57506;50.092;15.804;2023-07-20T09:22:43;98762.25;;;22.26;65.40
70027;BME280;57506;50.092;15.804;2023-07-20T09:25:13;98768.34;;;22.13;61.37
70027;BME280;57506;50.092;15.804;2023-07-20T09:27:41;98756.75;;;22.37;64.32
70027;BME280;57506;50.092;15.804;2023-07-20T09:30:07;98758.81;;;22.60;63.64
70027;BME280;57506;50.092;15.804;2023-07-20T09:32:43;98761.63;;;22.45;60.76
70027;BME280;57506;50.092;15.804;2023-07-20T09:35:21;98772.91;;;22.43;59.49
70027;BME280;57506;50.092;15.804;2023-07-20T09:37:50;98754.47;;;22.49;59.33
70027;BME280;57506;50.092;15.804;2023-07-20T09:40:20;98760.94;;;22.19;58.36
70027;BME280;57506;50.092;15.804;2023-07-20T09:42:46;98759.78;;;22.30;61.37
70027;BME280;57506;50.092;15.804;2023-07-20T09:45:12;98760.81;;;22.49;61.19
70027;BME280;57506;50.092;15.804;2023-07-20T09:47:38;98749.41;;;22.22;58.61
70027;BME280;57506;50.092;15.804;2023-07-20T09:50:04;98738.56;;;22.46;58.91
70027;BME280;57506;50.092;15.804;2023-07-20T09:52:40;98748.91;;;22.64;62.27
70027;BME280;57506;50.092;15.804;2023-07-20T09:55:07;98750.56;;;23.09;60.86
70027;BME280;57506;50.092;15.804;2023-07-20T09:57:34;98745.13;;;23.04;61.71
70027;BME280;57506;50.092;15.804;2023-07-20T10:00:05;98743.50;;;22.98;58.76
70027;BME280;57506;50.092;15.804;2023-07-20T10:02:43;98749.81;;;22.49;58.04
70027;BME280;57506;50.092;15.804;2023-07-20T10:05:14;98749.81;;;22.54;59.46
70027;BME280;57506;50.092;15.804;2023-07-20T10:07:45;98743.66;;;22.73;60.01
70027;BME280;57506;50.092;15.804;2023-07-20T10:10:14;98750.28;;;22.66;56.97
70027;BME280;57506;50.092;15.804;2023-07-20T10:12:41;98751.91;;;22.67;58.22
70027;BME280;57506;50.092;15.804;2023-07-20T10:15:34;98750.78;;;23.18;59.98
70027;BME280;57506;50.092;15.804;2023-07-20T10:20:42;98729.56;;;23.86;57.78
70027;BME280;57506;50.092;15.804;2023-07-20T10:23:10;98730.34;;;23.63;56.97
70027;BME280;57506;50.092;15.804;2023-07-20T10:25:37;98728.97;;;23.31;56.67
70027;BME280;57506;50.092;15.804;2023-07-20T10:28:07;98742.06;;;23.06;56.20
70027;BME280;57506;50.092;15.804;2023-07-20T10:30:36;98735.84;;;22.95;56.39
70027;BME280;57506;50.092;15.804;2023-07-20T10:33:05;98760.13;;;22.78;56.50
70027;BME280;57506;50.092;15.804;2023-07-20T10:35:53;98729.25;;;22.91;56.91
70027;BME280;57506;50.092;15.804;2023-07-20T10:38:20;98732.81;;;22.96;56.84
70027;BME280;57506;50.092;15.804;2023-07-20T10:40:55;98745.94;;;23.05;55.71
70027;BME280;57506;50.092;15.804;2023-07-20T10:43:21;98725.84;;;23.09;55.56
70027;BME280;57506;50.092;15.804;2023-07-20T10:45:53;98729.81;;;23.61;54.70
70027;BME280;57506;50.092;15.804;2023-07-20T10:50:46;98737.41;;;24.22;52.31
70027;BME280;57506;50.092;15.804;2023-07-20T10:53:18;98735.31;;;24.37;52.20
70027;BME280;57506;50.092;15.804;2023-07-20T10:55:44;98748.06;;;24.04;52.82
70027;BME280;57506;50.092;15.804;2023-07-20T10:58:15;98748.63;;;23.49;52.31
70027;BME280;57506;50.092;15.804;2023-07-20T11:01:03;98753.97;;;23.35;52.38
70027;BME280;57506;50.092;15.804;2023-07-20T11:03:33;98770.28;;;22.82;51.68
70027;BME280;57506;50.092;15.804;2023-07-20T11:05:59;98756.59;;;22.67;53.05
70027;BME280;57506;50.092;15.804;2023-07-20T11:08:43;98771.19;;;22.57;52.47
70027;BME280;57506;50.092;15.804;2023-07-20T11:11:26;98782.13;;;22.73;52.89
70027;BME280;57506;50.092;15.804;2023-07-20T11:14:05;98775.00;;;23.16;53.98
70027;BME280;57506;50.092;15.804;2023-07-20T11:16:45;98787.00;;;22.86;52.41
70027;BME280;57506;50.092;15.804;2023-07-20T11:19:24;98781.94;;;22.54;53.75
70027;BME280;57506;50.092;15.804;2023-07-20T11:21:55;98791.56;;;22.51;53.75
70027;BME280;57506;50.092;15.804;2023-07-20T11:24:22;98761.44;;;22.31;53.49
70027;BME280;57506;50.092;15.804;2023-07-20T11:26:50;98782.78;;;22.44;52.54
70027;BME280;57506;50.092;15.804;2023-07-20T11:29:17;98799.03;;;22.30;51.96
70027;BME280;57506;50.092;15.804;2023-07-20T11:31:46;98793.88;;;21.98;51.19
70027;BME280;57506;50.092;15.804;2023-07-20T11:34:15;98777.50;;;21.58;53.72
70027;BME280;57506;50.092;15.804;2023-07-20T11:36:43;98765.38;;;21.84;53.98
70027;BME280;57506;50.092;15.804;2023-07-20T11:39:10;98765.38;;;21.89;53.01
70027;BME280;57506;50.092;15.804;2023-07-20T11:41:36;98757.13;;;21.99;55.25
70027;BME280;57506;50.092;15.804;2023-07-20T11:44:04;98757.69;;;22.07;53.80
70027;BME280;57506;50.092;15.804;2023-07-20T11:46:31;98753.03;;;22.07;54.07
70027;BME280;57506;50.092;15.804;2023-07-20T11:49:01;98755.47;;;21.98;54.50
70027;BME280;57506;50.092;15.804;2023-07-20T11:51:28;98761.44;;;22.26;54.56
70027;BME280;57506;50.092;15.804;2023-07-20T11:53:55;98750.50;;;22.16;50.66
70027;BME280;57506;50.092;15.804;2023-07-20T11:56:25;98755.88;;;22.46;52.53
70027;BME280;57506;50.092;15.804;2023-07-20T11:58:55;98768.34;;;22.08;51.07
70027;BME280;57506;50.092;15.804;2023-07-20T12:01:23;98753.78;;;22.18;54.81
70027;BME280;57506;50.092;15.804;2023-07-20T12:03:49;98756.19;;;22.40;56.29
70027;BME280;57506;50.092;15.804;2023-07-20T12:06:15;98745.22;;;22.29;54.65
70027;BME280;57506;50.092;15.804;2023-07-20T12:08:42;98741.72;;;22.14;54.76
70027;BME280;57506;50.092;15.804;2023-07-20T12:11:08;98741.41;;;22.25;53.47
70027;BME280;57506;50.092;15.804;2023-07-20T12:13:38;98743.78;;;22.42;52.54
70027;BME280;57506;50.092;15.804;2023-07-20T12:16:12;98742.97;;;22.42;51.51
70027;BME280;57506;50.092;15.804;2023-07-20T12:18:43;98738.31;;;22.42;49.32
70027;BME280;57506;50.092;15.804;2023-07-20T12:21:10;98731.59;;;22.63;49.95
70027;BME280;57506;50.092;15.804;2023-07-20T12:23:38;98726.09;;;22.68;46.75
70027;BME280;57506;50.092;15.804;2023-07-20T12:26:11;98728.56;;;23.14;48.10
70027;BME280;57506;50.092;15.804;2023-07-20T12:28:40;98724.53;;;23.01;49.10
70027;BME280;57506;50.092;15.804;2023-07-20T12:31:08;98717.75;;;22.89;48.17
70027;BME280;57506;50.092;15.804;2023-07-20T12:33:35;98738.22;;;23.07;50.81
70027;BME280;57506;50.092;15.804;2023-07-20T12:36:01;98722.66;;;22.92;51.51
70027;BME280;57506;50.092;15.804;2023-07-20T12:38:27;98717.81;;;22.74;51.13
70027;BME280;57506;50.092;15.804;2023-07-20T12:40:54;98721.63;;;22.83;50.98
70027;BME280;57506;50.092;15.804;2023-07-20T12:43:24;98715.91;;;23.13;51.70
70027;BME280;57506;50.092;15.804;2023-07-20T12:45:50;98729.94;;;23.12;49.48
70027;BME280;57506;50.092;15.804;2023-07-20T12:48:15;98729.63;;;23.18;50.52
70027;BME280;57506;50.092;15.804;2023-07-20T12:50:41;98702.59;;;23.25;49.17
70027;BME280;57506;50.092;15.804;2023-07-20T12:53:07;98709.03;;;23.45;50.33
70027;BME280;57506;50.092;15.804;2023-07-20T12:55:34;98702.44;;;23.46;49.51
70027;BME280;57506;50.092;15.804;2023-07-20T12:58:00;98693.81;;;23.57;49.43
70027;BME280;57506;50.092;15.804;2023-07-20T13:00:26;98713.59;;;23.59;50.06